Oroville, CA

9:16 AM PDT on September 25, 2016 (GMT -0700)
East Oroville Pine Oaks Road | | Change Station
Active Advisory: Fire Weather Warning

Elev 490 ft 39.51 °N, 121.52 °W | Updated 1 minute ago

Clear
Clear
82.7 °F
Feels Like 80 °F
N
7.0
Wind Variable Wind from NE
Gusts 9.0 mph

Today
High -- | Low -- °F
--% Chance of Precip.
Yesterday
High -- | Low -- °F
Precip. -- in
Pressure 30.07 in
Visibility 10.0 miles
Clouds Clear
Heat Index 80 °F
Dew Point 36 °F
Humidity 19%
Rainfall 0.00 in
Snow Depth Not available.
6:57 AM 6:57 PM
Waning Crescent, 26% visible
METAR KOVE 251553Z AUTO 02014KT 10SM CLR 32/M03 A3007 RMK AO2 SLP182 T03171028
Pressure 30.07 in
Visibility 10.0 miles
Clouds Clear
Heat Index 80 °F
Dew Point 36 °F
Humidity 19%
Rainfall 0.00 in
Snow Depth Not available.
6:57 AM 6:57 PM
Waning Crescent, 26% visible
METAR KOVE 251553Z AUTO 02014KT 10SM CLR 32/M03 A3007 RMK AO2 SLP182 T03171028

10-Day Weather Forecast

Almanac

Astronomy

Sep. 25, 2016 Rise Set
Actual Time
Civil Twilight
Nautical Twilight
Astronomical Twilight
Moon
Length of Visible Light
Length of Day
Tomorrow will be .
, % of the Moon is Illuminated

Today's Extremes

State Highs State Lows

Community

WunderPhotos

Upload Photos

1,941,649 photos uploaded!

WunderBlog® & News

Nearby

Air Quality

  Air Quality AQ Index Pollutant
Not available.

Snow Depth

Station Depth Elevation

Earthquake Activity

City Distance Mag. Time & Date
Minimum magnitude displayed is 2.5.

Coastal Water Temperatures

Place Temperature

Stations

Nearby Weather Stations

Station Location Temp. Windchill Dew Point Humidity Wind Precip. Elev Updated Type
                   

Watches & Warnings

Fire Weather Warning
Issued: 3:00 AM PDT Sep. 25, 2016 – National Weather Service

... Red flag warning remains in effect until 6 PM PDT this evening
for gusty north winds and low humidity for fire weather zones
213... 215... 216... 217... 263... 264... 266... 268 and 279...

* affected area... fire weather zone 213. Fire weather zone 215.
Fire weather zone 216. Fire weather zone 217. Fire weather
zone 263. Fire weather zone 264. Fire weather zone 266. Fire
weather zone 268. Fire weather zone 279.

* Wind... north to northeast 15-30 mph. Strongest winds across the
Sierra will occur this morning.

* Humidity... afternoon minimum 5 to 15 percent today. Poor
overnight recovery of only 20 to 40 percent.

* Impacts... rapid spread of any fire starts likely.

Precautionary/preparedness actions...

A red flag warning means that critical fire weather conditions
are either occurring now... .or will shortly. A combination of
strong winds... low relative humidity... and warm temperatures can
contribute to extreme fire behavior.


Interact with US via social media
www.Facebook.Com/NWS.Sacramento
www.Twitter.Com/nwssacramento